createdAt,value
2023-04-08T07:44:07.868Z,9.53
2023-04-08T07:49:34.968Z,9.48
2023-04-08T07:55:02.292Z,9.88
2023-04-08T08:00:31.645Z,9.82
2023-04-08T08:05:59.120Z,9.80
2023-04-08T08:11:29.788Z,10.38
2023-04-08T08:16:57.460Z,11.64
2023-04-08T08:22:24.866Z,11.65
2023-04-08T08:27:52.119Z,11.89
2023-04-08T08:33:19.966Z,12.24
2023-04-08T08:38:46.994Z,12.80
2023-04-08T08:44:14.665Z,12.83
2023-04-08T08:49:42.612Z,12.59
2023-04-08T08:55:27.742Z,12.79
2023-04-08T09:00:58.110Z,12.42
2023-04-08T09:06:25.195Z,12.25
2023-04-08T09:12:04.870Z,12.27
2023-04-08T09:17:34.303Z,12.37
2023-04-08T09:23:03.101Z,12.45
2023-04-08T09:28:30.294Z,12.75
2023-04-08T09:34:00.113Z,12.88
2023-04-08T09:39:27.139Z,13.10
2023-04-08T09:44:56.231Z,13.38
2023-04-08T09:50:28.286Z,14.37
2023-04-08T09:55:57.738Z,14.91
2023-04-08T10:01:38.436Z,15.05
2023-04-08T10:07:08.934Z,14.90
2023-04-08T10:12:36.949Z,14.75
2023-04-08T10:18:07.103Z,14.81
2023-04-08T10:24:02.012Z,14.22
2023-04-08T10:29:31.205Z,14.40
2023-04-08T10:34:58.407Z,14.07
2023-04-08T10:40:27.520Z,14.80
2023-04-08T10:45:56.524Z,15.68
2023-04-08T10:51:25.186Z,16.77
2023-04-08T10:56:53.806Z,16.90
2023-04-08T11:02:21.771Z,16.83
2023-04-08T11:07:49.834Z,17.24
2023-04-08T11:13:18.510Z,17.54
2023-04-08T11:18:46.278Z,17.53
2023-04-08T11:24:13.665Z,17.95
2023-04-08T11:29:42.322Z,19.07
2023-04-08T11:35:09.861Z,20.06
2023-04-08T11:40:38.231Z,19.48
2023-04-08T11:46:12.913Z,18.08
2023-04-08T11:51:58.140Z,17.87
2023-04-08T11:57:32.972Z,18.46
2023-04-08T12:03:00.711Z,19.69
2023-04-08T12:08:28.608Z,18.60
2023-04-08T12:13:57.164Z,17.66
2023-04-08T12:19:25.141Z,17.63
2023-04-08T12:24:52.878Z,17.35
2023-04-08T12:30:21.609Z,17.42
2023-04-08T12:35:48.942Z,17.78
2023-04-08T12:41:17.288Z,18.53
2023-04-08T12:46:44.921Z,18.78
2023-04-08T12:52:12.571Z,17.88
2023-04-08T12:57:40.048Z,18.67
2023-04-08T13:03:08.164Z,18.38
2023-04-08T13:08:36.425Z,18.20
2023-04-08T13:14:04.016Z,17.77
2023-04-08T13:19:32.060Z,17.00
2023-04-08T13:24:59.827Z,16.96
2023-04-08T13:30:26.872Z,17.99
2023-04-08T13:35:53.848Z,19.10
2023-04-08T13:41:25.559Z,18.74
2023-04-08T13:46:53.390Z,17.89
2023-04-08T13:52:21.375Z,17.26
2023-04-08T13:57:49.184Z,17.92
2023-04-08T14:03:18.168Z,18.21
2023-04-08T14:08:46.040Z,17.06
2023-04-08T14:14:13.563Z,17.34
2023-04-08T14:19:42.151Z,17.67
2023-04-08T14:25:10.221Z,18.17
2023-04-08T14:30:38.114Z,18.11
2023-04-08T14:36:06.454Z,17.93
2023-04-08T14:41:34.116Z,18.53
2023-04-08T14:47:00.928Z,18.05
2023-04-08T14:52:28.198Z,17.63
2023-04-08T14:57:59.110Z,17.61
2023-04-08T15:03:28.470Z,17.63
2023-04-08T15:08:56.365Z,17.28
2023-04-08T15:14:24.247Z,17.10
2023-04-08T15:19:52.335Z,17.42
2023-04-08T15:25:22.719Z,17.39
2023-04-08T15:30:51.365Z,16.71
2023-04-08T15:36:20.077Z,16.07
2023-04-08T15:41:47.281Z,15.94
2023-04-08T15:47:15.127Z,15.36
2023-04-08T15:52:42.679Z,15.28
2023-04-08T15:58:10.287Z,15.57
2023-04-08T16:03:37.740Z,15.72
2023-04-08T16:09:04.865Z,15.45
2023-04-08T16:14:33.227Z,15.10
2023-04-08T16:20:00.736Z,15.14
2023-04-08T16:25:28.436Z,15.21
